European Highlander — C6SN6 — position and weather

sailwx.info

Track history (hours):
 
Tides and Currents Weather Stations Pressure Air Temp Water Temp Dewpoint Dewpoint Depression Visibility Wind Speed Wind Dir Waves Ship Positions

European Highlander

Operator: P&O Irish Sea Ltd

Last reported at 2017-Feb-07 21:14 UTC. Time now 2017-Feb-22 04:25 UTC.
Position N 54°57' W 005°29'.
Warning: this ship's position is 14 days out of date.

Length 161 m; draft 5.5 m.

Type: Passenger vessel. MMSI: 311404000.

Date/timePositionNaut miles runAvg speedWind from/ knotsBaromVisibWave heightAir tempDewpointWater temp
2017-Feb-07 21:14N 54°57' W 005°29'1 0.2
2017-Feb-07 14:32N 54°57' W 005°26'2 0.4
2017-Feb-07 08:22N 54°59' W 005°23'4 0.2
2017-Feb-06 11:33N 54°58' W 005°29'11 0.2
2017-Feb-04 09:12N 54°52' W 005°45'1417.1
2017-Feb-04 08:24N 54°58' W 005°24'6 1.8
2017-Feb-04 05:12N 54°60' W 005°14'1318.2
2017-Feb-04 04:28N 54°54' W 005°35'20 3.7
2017-Feb-03 23:08N 54°58' W 005°01'8 4.2
2017-Feb-03 21:17N 55°01' W 005°14'1717.9
2017-Feb-03 20:19N 54°53' W 005°41'23 1.3
2017-Feb-03 02:28N 54°58' W 005°01'2811.6
2017-Feb-03 00:06N 54°51' W 005°48'0 0.3
2017-Feb-02 23:27N 54°51' W 005°48'0 0.0
2017-Feb-02 03:32N 54°51' W 005°48'0 0.0
2017-Feb-02 02:29N 54°51' W 005°48'3 3.7
2017-Feb-02 01:33N 54°53' W 005°43'1717.5
2017-Feb-02 00:34N 55°00' W 005°16'9 8.9
2017-Feb-01 23:33N 54°58' W 005°01'0 0.0
2017-Feb-01 22:30N 54°58' W 005°01'5 4.8
2017-Feb-01 21:28N 55°02' W 005°07'1819.2
2017-Feb-01 20:33N 54°55' W 005°35'8 7.3
2017-Feb-01 19:24N 54°51' W 005°48'0 0.2
2017-Feb-01 18:26N 54°51' W 005°48'1615.4
2017-Feb-01 17:22N 54°59' W 005°23'1214.3
2017-Feb-01 16:32N 54°59' W 005°02'12 5.8
2017-Feb-01 14:31N 54°58' W 005°22'16 7.8
2017-Feb-01 12:27N 54°51' W 005°48'8 1.2
2017-Feb-01 05:20N 54°55' W 005°35'1 0.2
2017-Feb-01 00:27N 54°54' W 005°35'8 8.8
2017-Jan-31 23:32N 54°51' W 005°48'0 0.0
2017-Jan-31 22:31N 54°51' W 005°48'5 4.9
2017-Jan-31 21:33N 54°53' W 005°41'1515.6
2017-Jan-31 20:33N 54°60' W 005°16'9 9.2
2017-Jan-31 19:33N 54°58' W 005°01'0 0.0
2017-Jan-31 18:31N 54°58' W 005°01'2813.2
2017-Jan-31 16:24N 54°51' W 005°48'0 0.0
2017-Jan-31 15:27N 54°51' W 005°48'1213.7
2017-Jan-31 14:33N 54°57' W 005°29'1514.7
2017-Jan-31 13:30N 54°59' W 005°03'2 1.7
2017-Jan-31 12:33N 54°58' W 005°01'9 9.1
2017-Jan-31 11:34N 54°59' W 005°17'1717.0
2017-Jan-31 10:33N 54°52' W 005°44'3 2.7
2017-Jan-31 09:30N 54°51' W 005°48'1212.4
2017-Jan-31 08:33N 54°57' W 005°30'1615.3
2017-Jan-31 07:30N 54°59' W 005°03'1 1.4
2017-Jan-31 06:26N 54°58' W 005°01'5 4.8
2017-Jan-31 05:24N 55°02' W 005°06'1518.2
2017-Jan-31 04:33N 54°56' W 005°31'1110.9
2017-Jan-31 03:34N 54°51' W 005°48'0 0.0
2017-Jan-31 02:33N 54°51' W 005°48'4 3.9
2017-Jan-31 01:33N 54°53' W 005°42'1817.6
2017-Jan-31 00:33N 55°02' W 005°16'9 9.2
2017-Jan-30 23:33N 54°58' W 005°01'0 0.0
2017-Jan-30 22:18N 54°58' W 005°01'6 6.3
2017-Jan-30 21:23N 55°01' W 005°09'1618.2
2017-Jan-30 20:30N 54°54' W 005°33'9 9.6
2017-Jan-30 19:33N 54°51' W 005°48'0 0.0
2017-Jan-30 18:34N 54°51' W 005°48'1313.0
2017-Jan-30 17:33N 54°58' W 005°29'1514.8
2017-Jan-30 16:32N 54°59' W 005°02'1 1.2
2017-Jan-30 15:27N 54°58' W 005°01'1212.7
2017-Jan-30 14:31N 54°58' W 005°22'1616.4
2017-Jan-30 13:32N 54°52' W 005°47'1 0.9
2017-Jan-30 12:33N 54°51' W 005°48'1312.6
2017-Jan-30 11:33N 54°57' W 005°29'1515.0
2017-Jan-30 10:33N 54°59' W 005°03'1 1.4
2017-Jan-30 09:32N 54°58' W 005°01'1010.6
2017-Jan-30 08:33N 54°58' W 005°19'1817.5
2017-Jan-30 07:32N 54°51' W 005°48'0 0.1
2017-Jan-30 06:16N 54°51' W 005°48'3 4.2
2017-Jan-30 05:33N 54°53' W 005°44'1717.2
2017-Jan-30 04:33N 55°00' W 005°17'9 9.4
2017-Jan-30 03:33N 54°58' W 005°01'0 0.0
2017-Jan-30 02:33N 54°58' W 005°01'0 0.0
2017-Jan-30 01:33N 54°58' W 005°01'5 4.6
2017-Jan-30 00:30N 55°01' W 005°06'1717.5
2017-Jan-29 23:33N 54°55' W 005°33'10 9.3
2017-Jan-29 22:32N 54°51' W 005°48'4 4.1
2017-Jan-29 21:33N 54°53' W 005°42'1817.7
2017-Jan-29 20:33N 55°01' W 005°14'8 8.1
2017-Jan-29 19:33N 54°58' W 005°01'0 0.0
2017-Jan-29 18:33N 54°58' W 005°01'1010.3
2017-Jan-29 17:33N 54°58' W 005°19'1817.6
2017-Jan-29 16:33N 54°52' W 005°47'1 1.0
2017-Jan-29 15:33N 54°51' W 005°48'4 3.7
2017-Jan-29 14:33N 54°53' W 005°43'1616.4
2017-Jan-29 13:33N 55°01' W 005°17'10 9.7
2017-Jan-29 12:33N 54°58' W 005°01'0 0.0
2017-Jan-29 11:33N 54°58' W 005°01'0 0.0
2017-Jan-29 10:33N 54°58' W 005°01'0 0.0
2017-Jan-29 09:33N 54°58' W 005°01'8 8.0
2017-Jan-29 08:34N 54°60' W 005°14'1918.8
2017-Jan-29 07:33N 54°52' W 005°44'2 2.5
2017-Jan-29 06:33N 54°51' W 005°48'0 0.0
2017-Jan-29 05:33N 54°51' W 005°48'0 0.0
2017-Jan-29 04:33N 54°51' W 005°48'0 0.0
2017-Jan-29 03:33N 54°51' W 005°48'0 0.0
2017-Jan-29 02:33N 54°51' W 005°48'0 0.0
2017-Jan-29 01:33N 54°51' W 005°48'0 0.0
2017-Jan-29 00:33N 54°51' W 005°48'0 0.0
2017-Jan-28 23:33N 54°51' W 005°48'0 0.0
2017-Jan-28 22:33N 54°51' W 005°48'1 1.4
2017-Jan-28 21:33N 54°52' W 005°47'  
Track history (hours):
 
Tides and Currents Weather Stations Pressure Air Temp Water Temp Dewpoint Dewpoint Depression Visibility Wind Speed Wind Dir Waves Ship Positions

European Highlander

Operator: P&O Irish Sea Ltd

Last reported at 2017-Feb-07 21:14 UTC. Time now 2017-Feb-22 04:25 UTC.
Position N 54°57' W 005°29'.
Warning: this ship's position is 14 days out of date.

Length 161 m; draft 5.5 m.

Type: Passenger vessel. MMSI: 311404000.

Date/timePositionNaut miles runAvg speedWind from/ knotsBaromVisibWave heightAir tempDewpointWater temp
2017-Feb-07 21:14N 54°57' W 005°29'1 0.2
2017-Feb-07 14:32N 54°57' W 005°26'2 0.4
2017-Feb-07 08:22N 54°59' W 005°23'4 0.2
2017-Feb-06 11:33N 54°58' W 005°29'11 0.2
2017-Feb-04 09:12N 54°52' W 005°45'1417.1
2017-Feb-04 08:24N 54°58' W 005°24'6 1.8
2017-Feb-04 05:12N 54°60' W 005°14'1318.2
2017-Feb-04 04:28N 54°54' W 005°35'20 3.7
2017-Feb-03 23:08N 54°58' W 005°01'8 4.2
2017-Feb-03 21:17N 55°01' W 005°14'1717.9
2017-Feb-03 20:19N 54°53' W 005°41'23 1.3
2017-Feb-03 02:28N 54°58' W 005°01'2811.6
2017-Feb-03 00:06N 54°51' W 005°48'0 0.3
2017-Feb-02 23:27N 54°51' W 005°48'0 0.0
2017-Feb-02 03:32N 54°51' W 005°48'0 0.0
2017-Feb-02 02:29N 54°51' W 005°48'3 3.7
2017-Feb-02 01:33N 54°53' W 005°43'1717.5
2017-Feb-02 00:34N 55°00' W 005°16'9 8.9
2017-Feb-01 23:33N 54°58' W 005°01'0 0.0
2017-Feb-01 22:30N 54°58' W 005°01'5 4.8
2017-Feb-01 21:28N 55°02' W 005°07'1819.2
2017-Feb-01 20:33N 54°55' W 005°35'8 7.3
2017-Feb-01 19:24N 54°51' W 005°48'0 0.2
2017-Feb-01 18:26N 54°51' W 005°48'1615.4
2017-Feb-01 17:22N 54°59' W 005°23'1214.3
2017-Feb-01 16:32N 54°59' W 005°02'12 5.8
2017-Feb-01 14:31N 54°58' W 005°22'16 7.8
2017-Feb-01 12:27N 54°51' W 005°48'8 1.2
2017-Feb-01 05:20N 54°55' W 005°35'1 0.2
2017-Feb-01 00:27N 54°54' W 005°35'8 8.8
2017-Jan-31 23:32N 54°51' W 005°48'0 0.0
2017-Jan-31 22:31N 54°51' W 005°48'5 4.9
2017-Jan-31 21:33N 54°53' W 005°41'1515.6
2017-Jan-31 20:33N 54°60' W 005°16'9 9.2
2017-Jan-31 19:33N 54°58' W 005°01'0 0.0
2017-Jan-31 18:31N 54°58' W 005°01'2813.2
2017-Jan-31 16:24N 54°51' W 005°48'0 0.0
2017-Jan-31 15:27N 54°51' W 005°48'1213.7
2017-Jan-31 14:33N 54°57' W 005°29'1514.7
2017-Jan-31 13:30N 54°59' W 005°03'2 1.7
2017-Jan-31 12:33N 54°58' W 005°01'9 9.1
2017-Jan-31 11:34N 54°59' W 005°17'1717.0
2017-Jan-31 10:33N 54°52' W 005°44'3 2.7
2017-Jan-31 09:30N 54°51' W 005°48'1212.4
2017-Jan-31 08:33N 54°57' W 005°30'1615.3
2017-Jan-31 07:30N 54°59' W 005°03'1 1.4
2017-Jan-31 06:26N 54°58' W 005°01'5 4.8
2017-Jan-31 05:24N 55°02' W 005°06'1518.2
2017-Jan-31 04:33N 54°56' W 005°31'1110.9
2017-Jan-31 03:34N 54°51' W 005°48'0 0.0
2017-Jan-31 02:33N 54°51' W 005°48'4 3.9
2017-Jan-31 01:33N 54°53' W 005°42'1817.6
2017-Jan-31 00:33N 55°02' W 005°16'9 9.2
2017-Jan-30 23:33N 54°58' W 005°01'0 0.0
2017-Jan-30 22:18N 54°58' W 005°01'6 6.3
2017-Jan-30 21:23N 55°01' W 005°09'1618.2
2017-Jan-30 20:30N 54°54' W 005°33'9 9.6
2017-Jan-30 19:33N 54°51' W 005°48'0 0.0
2017-Jan-30 18:34N 54°51' W 005°48'1313.0
2017-Jan-30 17:33N 54°58' W 005°29'1514.8
2017-Jan-30 16:32N 54°59' W 005°02'1 1.2
2017-Jan-30 15:27N 54°58' W 005°01'1212.7
2017-Jan-30 14:31N 54°58' W 005°22'1616.4
2017-Jan-30 13:32N 54°52' W 005°47'1 0.9
2017-Jan-30 12:33N 54°51' W 005°48'1312.6
2017-Jan-30 11:33N 54°57' W 005°29'1515.0
2017-Jan-30 10:33N 54°59' W 005°03'1 1.4
2017-Jan-30 09:32N 54°58' W 005°01'1010.6
2017-Jan-30 08:33N 54°58' W 005°19'1817.5
2017-Jan-30 07:32N 54°51' W 005°48'0 0.1
2017-Jan-30 06:16N 54°51' W 005°48'3 4.2
2017-Jan-30 05:33N 54°53' W 005°44'1717.2
2017-Jan-30 04:33N 55°00' W 005°17'9 9.4
2017-Jan-30 03:33N 54°58' W 005°01'0 0.0
2017-Jan-30 02:33N 54°58' W 005°01'0 0.0
2017-Jan-30 01:33N 54°58' W 005°01'5 4.6
2017-Jan-30 00:30N 55°01' W 005°06'1717.5
2017-Jan-29 23:33N 54°55' W 005°33'10 9.3
2017-Jan-29 22:32N 54°51' W 005°48'4 4.1
2017-Jan-29 21:33N 54°53' W 005°42'1817.7
2017-Jan-29 20:33N 55°01' W 005°14'8 8.1
2017-Jan-29 19:33N 54°58' W 005°01'0 0.0
2017-Jan-29 18:33N 54°58' W 005°01'1010.3
2017-Jan-29 17:33N 54°58' W 005°19'1817.6
2017-Jan-29 16:33N 54°52' W 005°47'1 1.0
2017-Jan-29 15:33N 54°51' W 005°48'4 3.7
2017-Jan-29 14:33N 54°53' W 005°43'1616.4
2017-Jan-29 13:33N 55°01' W 005°17'10 9.7
2017-Jan-29 12:33N 54°58' W 005°01'0 0.0
2017-Jan-29 11:33N 54°58' W 005°01'0 0.0
2017-Jan-29 10:33N 54°58' W 005°01'0 0.0
2017-Jan-29 09:33N 54°58' W 005°01'8 8.0
2017-Jan-29 08:34N 54°60' W 005°14'1918.8
2017-Jan-29 07:33N 54°52' W 005°44'2 2.5
2017-Jan-29 06:33N 54°51' W 005°48'0 0.0
2017-Jan-29 05:33N 54°51' W 005°48'0 0.0
2017-Jan-29 04:33N 54°51' W 005°48'0 0.0
2017-Jan-29 03:33N 54°51' W 005°48'0 0.0
2017-Jan-29 02:33N 54°51' W 005°48'0 0.0
2017-Jan-29 01:33N 54°51' W 005°48'0 0.0
2017-Jan-29 00:33N 54°51' W 005°48'0 0.0
2017-Jan-28 23:33N 54°51' W 005°48'0 0.0
2017-Jan-28 22:33N 54°51' W 005°48'1 1.4
2017-Jan-28 21:33N 54°52' W 005°47'  

Dump ship's entire track history